Time;durP1;ratioP1;P1;durP2;ratioP2;P2;SDS_P1;SDS_P2;PMS_P1;PMS_P2;Temp;Humidity;BMP_temperature;BMP_pressure;BME280_temperature;BME280_humidity;BME280_pressure;Samples;Min_cycle;Max_cycle;Signal;HPM_P1;HPM_P2
2024/04/12 00:00:21;;;;;;;;;;;10.70;99.90;;;;;;2211264;26;19936;-76
2024/04/12 00:01:22;;;;;;;;;;;10.70;99.90;;;;;;2229381;26;19929;-76
2024/04/12 00:02:26;;;;;;;;;;;10.70;99.90;;;;;;2225276;26;20420;-76
2024/04/12 00:03:27;;;;;;;;;;;10.70;99.90;;;;;;2214907;26;20261;-75
2024/04/12 00:04:27;;;;;;;;;;;10.70;99.90;;;;;;2212454;26;20010;-76
2024/04/12 00:05:27;;;;;;;;;;;10.70;99.90;;;;;;2216178;26;19930;-76
2024/04/12 00:06:30;;;;;;;;;;;10.70;99.90;;;;;;2200849;26;19930;-76
2024/04/12 00:07:35;;;;;;;;;;;10.70;99.90;;;;;;2217669;26;20240;-76
2024/04/12 00:08:35;;;;;;;;;;;10.70;99.90;;;;;;2225765;26;19966;-76
2024/04/12 00:09:36;;;;;;;;;;;10.70;99.90;;;;;;2214034;26;21022;-75
2024/04/12 00:10:37;;;;;;;;;;;10.70;99.90;;;;;;2188521;27;20411;-75
2024/04/12 00:11:38;;;;;;;;;;;10.70;99.90;;;;;;2182225;26;20001;-75
2024/04/12 00:12:38;;;;;;;;;;;10.60;99.90;;;;;;2211773;26;20104;-76
2024/04/12 00:13:40;;;;;;;;;;;10.60;99.90;;;;;;2215795;26;20284;-76
2024/04/12 00:14:43;;;;;;;;;;;10.60;99.90;;;;;;2225158;26;19929;-75
2024/04/12 00:15:44;;;;;;;;;;;10.60;99.90;;;;;;2226563;26;19937;-76
2024/04/12 00:16:50;;;;;;;;;;;10.60;99.90;;;;;;2231709;26;19933;-75
2024/04/12 00:17:55;;;;;;;;;;;10.60;99.90;;;;;;2236546;26;19929;-76
2024/04/12 00:19:07;;;;;;;;;;;10.60;99.90;;;;;;2225589;26;20386;-75
2024/04/12 00:20:10;;;;;;;;;;;10.60;99.90;;;;;;2227807;26;20453;-77
2024/04/12 00:21:11;;;;;;;;;;;10.60;99.90;;;;;;2225708;26;19940;-75
2024/04/12 00:22:14;;;;;;;;;;;10.60;99.90;;;;;;2214917;26;20086;-76
2024/04/12 00:23:14;;;;;;;;;;;10.50;99.90;;;;;;2216336;26;19929;-75
2024/04/12 00:24:15;;;;;;;;;;;10.50;99.90;;;;;;2217782;26;20377;-74
2024/04/12 00:25:17;;;;;;;;;;;10.50;99.90;;;;;;2216822;26;20667;-75
2024/04/12 00:26:18;;;;;;;;;;;10.40;99.90;;;;;;2232324;26;20022;-76
2024/04/12 00:27:21;;;;;;;;;;;10.40;99.90;;;;;;2231988;26;20002;-75
2024/04/12 00:28:22;;;;;;;;;;;10.40;99.90;;;;;;2224050;26;20482;-75
2024/04/12 00:29:25;;;;;;;;;;;10.30;99.90;;;;;;2225121;26;19929;-75
2024/04/12 00:30:39;;;;;;;;;;;10.30;99.90;;;;;;2230857;26;19937;-75
2024/04/12 00:31:42;;;;;;;;;;;10.30;99.90;;;;;;2223734;26;19936;-76
2024/04/12 00:32:43;;;;;;;;;;;10.30;99.90;;;;;;2227269;26;20043;-76
2024/04/12 00:33:48;;;;;;;;;;;10.30;99.90;;;;;;2232054;26;19932;-76
2024/04/12 00:34:51;;;;;;;;;;;10.30;99.90;;;;;;2226245;26;19942;-73
2024/04/12 00:35:54;;;;;;;;;;;10.30;99.90;;;;;;2224998;26;19935;-75
2024/04/12 00:37:06;;;;;;;;;;;10.20;99.90;;;;;;2223449;26;19930;-74
2024/04/12 00:38:09;;;;;;;;;;;10.20;99.90;;;;;;2210180;26;19934;-75
2024/04/12 00:39:35;;;;;;;;;;;10.20;99.90;;;;;;2210641;26;20321;-74
2024/04/12 00:40:32;;;;;;;;;;;10.20;99.90;;;;;;2225303;26;20375;-74
2024/04/12 00:41:33;;;;;;;;;;;10.20;99.90;;;;;;2231890;26;19961;-75
2024/04/12 00:42:33;;;;;;;;;;;10.20;99.90;;;;;;2226707;26;20626;-75
2024/04/12 00:43:36;;;;;;;;;;;10.30;99.90;;;;;;2225362;26;19937;-75
2024/04/12 00:44:39;;;;;;;;;;;10.30;99.90;;;;;;2215128;26;19933;-75
2024/04/12 00:45:43;;;;;;;;;;;10.30;99.90;;;;;;2213257;26;20346;-76
2024/04/12 00:46:44;;;;;;;;;;;10.20;99.90;;;;;;2225506;26;20375;-76
2024/04/12 00:47:44;;;;;;;;;;;10.30;99.90;;;;;;2212884;26;19933;-76
2024/04/12 00:48:46;;;;;;;;;;;10.30;99.90;;;;;;2199661;26;20241;-74
2024/04/12 00:49:50;;;;;;;;;;;10.30;99.90;;;;;;2209984;26;21141;-75
2024/04/12 00:50:50;;;;;;;;;;;10.30;99.90;;;;;;2197634;26;20298;-75
2024/04/12 00:51:51;;;;;;;;;;;10.30;99.90;;;;;;2200948;26;20017;-76
2024/04/12 00:52:52;;;;;;;;;;;10.20;99.90;;;;;;2210109;26;19934;-76
2024/04/12 00:53:57;;;;;;;;;;;10.20;99.90;;;;;;2226379;26;19929;-75
2024/04/12 00:55:03;;;;;;;;;;;10.20;99.90;;;;;;2225290;26;20647;-75
2024/04/12 00:56:04;;;;;;;;;;;10.20;99.90;;;;;;2227029;26;19953;-76
2024/04/12 00:57:04;;;;;;;;;;;10.20;99.90;;;;;;2224893;26;19929;-76
2024/04/12 00:58:09;;;;;;;;;;;10.20;99.90;;;;;;2226070;26;19941;-74
2024/04/12 00:59:09;;;;;;;;;;;10.10;99.90;;;;;;2231348;26;19936;-76
2024/04/12 01:00:19;;;;;;;;;;;10.10;99.90;;;;;;2226088;26;19929;-76
2024/04/12 01:01:22;;;;;;;;;;;10.10;99.90;;;;;;2229118;26;19943;-76
2024/04/12 01:02:22;;;;;;;;;;;10.10;99.90;;;;;;2209588;26;19973;-76
2024/04/12 01:03:24;;;;;;;;;;;10.10;99.90;;;;;;2197525;26;19942;-76
2024/04/12 01:04:25;;;;;;;;;;;10.00;99.90;;;;;;2217079;26;19995;-75
2024/04/12 01:05:28;;;;;;;;;;;10.00;99.90;;;;;;2216058;26;19930;-75
2024/04/12 01:06:32;;;;;;;;;;;10.00;99.90;;;;;;2210043;26;19933;-75
2024/04/12 01:07:36;;;;;;;;;;;10.00;99.90;;;;;;2231561;26;19996;-75
2024/04/12 01:08:37;;;;;;;;;;;10.00;99.90;;;;;;2232257;26;19955;-75
2024/04/12 01:09:37;;;;;;;;;;;10.00;99.90;;;;;;2216970;26;20560;-76
2024/04/12 01:10:38;;;;;;;;;;;10.00;99.90;;;;;;2201887;26;20339;-76
2024/04/12 01:11:39;;;;;;;;;;;10.00;99.90;;;;;;2200301;26;19937;-76
2024/04/12 01:12:39;;;;;;;;;;;10.00;99.90;;;;;;2211375;26;20344;-76
2024/04/12 01:13:40;;;;;;;;;;;10.00;99.90;;;;;;2224930;26;19936;-77
2024/04/12 01:14:42;;;;;;;;;;;10.00;99.90;;;;;;2218472;26;19930;-77
2024/04/12 01:15:43;;;;;;;;;;;10.00;99.90;;;;;;2220403;26;19937;-78
2024/04/12 01:16:43;;;;;;;;;;;10.00;99.90;;;;;;2211153;26;19998;-77
2024/04/12 01:17:44;;;;;;;;;;;10.10;99.90;;;;;;2225227;26;20350;-77
2024/04/12 01:18:45;;;;;;;;;;;10.10;99.90;;;;;;2232342;26;19932;-77
2024/04/12 01:19:46;;;;;;;;;;;10.00;99.90;;;;;;2232788;26;19929;-77
2024/04/12 01:20:47;;;;;;;;;;;10.00;99.90;;;;;;2209392;26;20301;-76
2024/04/12 01:21:47;;;;;;;;;;;10.00;99.90;;;;;;2216746;26;19986;-76
2024/04/12 01:22:48;;;;;;;;;;;10.10;99.90;;;;;;2216590;26;19930;-76
2024/04/12 01:23:53;;;;;;;;;;;10.10;99.90;;;;;;2224760;26;19933;-77
2024/04/12 01:24:54;;;;;;;;;;;10.10;99.90;;;;;;2228289;26;19994;-76
2024/04/12 01:25:56;;;;;;;;;;;10.00;99.90;;;;;;2229037;26;20518;-76
2024/04/12 01:26:58;;;;;;;;;;;10.00;99.90;;;;;;2231912;26;20469;-77
2024/04/12 01:27:58;;;;;;;;;;;10.10;99.90;;;;;;2215130;26;19934;-76
2024/04/12 01:28:59;;;;;;;;;;;10.00;99.90;;;;;;2218031;26;19929;-77
2024/04/12 01:30:00;;;;;;;;;;;10.00;99.90;;;;;;2216685;26;19962;-77
2024/04/12 01:31:01;;;;;;;;;;;10.00;99.90;;;;;;2204305;26;19930;-75
2024/04/12 01:32:04;;;;;;;;;;;10.00;99.90;;;;;;2210744;26;20518;-76
2024/04/12 01:33:06;;;;;;;;;;;9.90;99.90;;;;;;2196733;26;19930;-75
2024/04/12 01:34:13;;;;;;;;;;;9.90;99.90;;;;;;2198240;26;19930;-76
2024/04/12 01:35:13;;;;;;;;;;;9.90;99.90;;;;;;2224770;26;19960;-75
2024/04/12 01:36:17;;;;;;;;;;;9.90;99.90;;;;;;2213916;26;20232;-77
2024/04/12 01:37:21;;;;;;;;;;;9.90;99.90;;;;;;2202371;26;19936;-76
2024/04/12 01:38:21;;;;;;;;;;;9.90;99.90;;;;;;2215391;26;20407;-77
2024/04/12 01:39:21;;;;;;;;;;;9.90;99.90;;;;;;2227040;26;19995;-76
2024/04/12 01:40:23;;;;;;;;;;;9.90;99.90;;;;;;2224948;26;19941;-78
2024/04/12 01:41:31;;;;;;;;;;;9.90;99.90;;;;;;2215003;26;19949;-77
2024/04/12 01:42:37;;;;;;;;;;;9.90;99.90;;;;;;2202671;26;20020;-77
2024/04/12 01:43:45;;;;;;;;;;;9.90;99.90;;;;;;2204508;26;19930;-77
2024/04/12 01:46:10;;;;;;;;;;;9.90;99.90;;;;;;2212253;26;19958;-78
2024/04/12 01:47:16;;;;;;;;;;;10.00;99.90;;;;;;2206810;26;20347;-79
2024/04/12 01:48:25;;;;;;;;;;;9.90;99.90;;;;;;2208275;26;19937;-78
2024/04/12 01:49:26;;;;;;;;;;;9.90;99.90;;;;;;2216791;26;19929;-78
2024/04/12 01:50:28;;;;;;;;;;;9.90;99.90;;;;;;2188860;26;19937;-78
2024/04/12 01:51:34;;;;;;;;;;;9.90;99.90;;;;;;2193595;26;20447;-78
2024/04/12 01:52:50;;;;;;;;;;;9.90;99.90;;;;;;2190291;26;19939;-78
2024/04/12 01:53:57;;;;;;;;;;;9.90;99.90;;;;;;2187002;26;19941;-79
2024/04/12 01:55:07;;;;;;;;;;;9.90;99.90;;;;;;2206981;26;20432;-79
2024/04/12 01:56:09;;;;;;;;;;;9.90;99.90;;;;;;2194838;26;19942;-78
2024/04/12 01:57:15;;;;;;;;;;;9.90;99.90;;;;;;2201800;26;20456;-76
2024/04/12 01:58:19;;;;;;;;;;;9.90;99.90;;;;;;2202147;26;19934;-77
2024/04/12 01:59:23;;;;;;;;;;;9.90;99.90;;;;;;2193828;26;19937;-77
2024/04/12 02:00:27;;;;;;;;;;;9.90;99.90;;;;;;2201823;26;19930;-78
2024/04/12 02:01:33;;;;;;;;;;;9.90;99.90;;;;;;2202984;26;20273;-78
2024/04/12 02:02:37;;;;;;;;;;;9.90;99.90;;;;;;2216536;26;20372;-78
2024/04/12 02:03:40;;;;;;;;;;;9.80;99.90;;;;;;2180473;26;19938;-77
2024/04/12 02:04:41;;;;;;;;;;;9.80;99.90;;;;;;2181347;26;19931;-78
2024/04/12 02:05:44;;;;;;;;;;;9.90;99.90;;;;;;2174069;26;20318;-77
2024/04/12 02:06:48;;;;;;;;;;;9.90;99.90;;;;;;2188317;26;19931;-77
2024/04/12 02:07:49;;;;;;;;;;;9.80;99.90;;;;;;2194317;26;19938;-78
2024/04/12 02:08:57;;;;;;;;;;;9.80;99.90;;;;;;2189051;26;19986;-77
2024/04/12 02:10:07;;;;;;;;;;;9.80;99.90;;;;;;2203811;26;19937;-79
2024/04/12 02:11:10;;;;;;;;;;;9.80;99.90;;;;;;2182060;26;20376;-78
2024/04/12 02:12:15;;;;;;;;;;;9.80;99.90;;;;;;2181599;26;20048;-78
2024/04/12 02:13:17;;;;;;;;;;;9.80;99.90;;;;;;2188569;26;19930;-77
2024/04/12 02:14:22;;;;;;;;;;;9.80;99.90;;;;;;2208874;26;19944;-77
2024/04/12 02:15:25;;;;;;;;;;;9.80;99.90;;;;;;2199174;26;19938;-77
2024/04/12 02:16:27;;;;;;;;;;;9.80;99.90;;;;;;2208102;26;19933;-78
2024/04/12 02:17:30;;;;;;;;;;;9.80;99.90;;;;;;2203126;26;20304;-78
2024/04/12 02:18:34;;;;;;;;;;;9.80;99.90;;;;;;2199342;26;19930;-77
2024/04/12 02:19:36;;;;;;;;;;;9.80;99.90;;;;;;2186555;26;20393;-77
2024/04/12 02:20:37;;;;;;;;;;;9.80;99.90;;;;;;2177802;27;19963;-77
2024/04/12 02:21:38;;;;;;;;;;;9.80;99.90;;;;;;2187407;26;20799;-77
2024/04/12 02:22:39;;;;;;;;;;;9.80;99.90;;;;;;2200996;26;20265;-78
2024/04/12 02:23:43;;;;;;;;;;;9.80;99.90;;;;;;2201508;26;20273;-78
2024/04/12 02:24:44;;;;;;;;;;;9.80;99.90;;;;;;2194828;26;20000;-78
2024/04/12 02:25:50;;;;;;;;;;;9.80;99.90;;;;;;2197403;26;19941;-79
2024/04/12 02:26:51;;;;;;;;;;;9.80;99.90;;;;;;2182370;26;20278;-78
2024/04/12 02:27:56;;;;;;;;;;;9.80;99.90;;;;;;2188390;26;20498;-77
2024/04/12 02:29:01;;;;;;;;;;;9.80;99.90;;;;;;2185927;26;20053;-78
2024/04/12 02:30:01;;;;;;;;;;;9.70;99.90;;;;;;2195556;26;19930;-76
2024/04/12 02:31:08;;;;;;;;;;;9.70;99.90;;;;;;2193726;26;19930;-76
2024/04/12 02:32:08;;;;;;;;;;;9.70;99.90;;;;;;2224456;26;19933;-76
2024/04/12 02:33:09;;;;;;;;;;;9.70;99.90;;;;;;2227729;26;20260;-74
2024/04/12 02:34:11;;;;;;;;;;;9.70;99.90;;;;;;2229009;26;19998;-76
2024/04/12 02:35:11;;;;;;;;;;;9.70;99.90;;;;;;2224112;26;19929;-76
2024/04/12 02:36:12;;;;;;;;;;;9.70;99.90;;;;;;2226683;26;20314;-77
2024/04/12 02:37:12;;;;;;;;;;;9.70;99.90;;;;;;2213893;26;20041;-76
2024/04/12 02:38:15;;;;;;;;;;;9.70;99.90;;;;;;2193145;26;21909;-76
2024/04/12 02:39:22;;;;;;;;;;;9.70;99.90;;;;;;2196321;26;19937;-76
2024/04/12 02:40:22;;;;;;;;;;;9.60;99.90;;;;;;2210633;26;20000;-76
2024/04/12 02:41:23;;;;;;;;;;;9.60;99.90;;;;;;2209675;26;19945;-76
2024/04/12 02:42:28;;;;;;;;;;;9.60;99.90;;;;;;2194132;26;19934;-74
2024/04/12 02:43:29;;;;;;;;;;;9.60;99.90;;;;;;2200649;26;19942;-75
2024/04/12 02:44:30;;;;;;;;;;;9.60;99.90;;;;;;2210851;26;20296;-75
2024/04/12 02:45:33;;;;;;;;;;;9.60;99.90;;;;;;2209011;26;19937;-76
2024/04/12 02:46:34;;;;;;;;;;;9.60;99.90;;;;;;2228297;26;19936;-75
2024/04/12 02:47:35;;;;;;;;;;;9.60;99.90;;;;;;2209785;26;20253;-75
2024/04/12 02:48:36;;;;;;;;;;;9.50;99.90;;;;;;2201515;26;20329;-76
2024/04/12 02:49:40;;;;;;;;;;;9.50;99.90;;;;;;2202555;26;19930;-76
2024/04/12 02:50:41;;;;;;;;;;;9.50;99.90;;;;;;2209407;26;20253;-76
2024/04/12 02:51:47;;;;;;;;;;;9.50;99.90;;;;;;2228056;26;20008;-77
2024/04/12 02:52:47;;;;;;;;;;;9.50;99.90;;;;;;2213535;26;19938;-76
2024/04/12 02:53:50;;;;;;;;;;;9.50;99.90;;;;;;2216409;26;20345;-77
2024/04/12 02:54:53;;;;;;;;;;;9.50;99.90;;;;;;2208727;26;19929;-76
2024/04/12 02:56:03;;;;;;;;;;;9.50;99.90;;;;;;2221750;26;20163;-75
2024/04/12 02:57:04;;;;;;;;;;;9.50;99.90;;;;;;2211130;26;19960;-75
2024/04/12 02:58:04;;;;;;;;;;;9.40;99.90;;;;;;2225865;26;19949;-76
2024/04/12 02:59:05;;;;;;;;;;;9.40;99.90;;;;;;2231082;26;19937;-76
2024/04/12 03:00:15;;;;;;;;;;;9.50;99.90;;;;;;2213374;26;19937;-76
2024/04/12 03:01:17;;;;;;;;;;;9.50;99.90;;;;;;2215342;26;19929;-76
2024/04/12 03:02:17;;;;;;;;;;;9.50;99.90;;;;;;2223889;26;19989;-76
2024/04/12 03:03:18;;;;;;;;;;;9.50;99.90;;;;;;2210403;26;19930;-76
2024/04/12 03:04:19;;;;;;;;;;;9.50;99.90;;;;;;2213807;26;20023;-77
2024/04/12 03:05:20;;;;;;;;;;;9.50;99.90;;;;;;2208335;26;19952;-76
2024/04/12 03:06:22;;;;;;;;;;;9.40;99.90;;;;;;2196224;26;19942;-76
2024/04/12 03:07:23;;;;;;;;;;;9.50;99.90;;;;;;2194618;26;20202;-77
2024/04/12 03:08:24;;;;;;;;;;;9.40;99.90;;;;;;2213716;26;19944;-77
2024/04/12 03:09:27;;;;;;;;;;;9.40;99.90;;;;;;2209103;26;19954;-79
2024/04/12 03:10:32;;;;;;;;;;;9.40;99.90;;;;;;2210396;26;20281;-76
2024/04/12 03:11:36;;;;;;;;;;;9.40;99.90;;;;;;2208445;26;20341;-76
2024/04/12 03:12:37;;;;;;;;;;;9.40;99.90;;;;;;2202009;26;20383;-76
2024/04/12 03:13:38;;;;;;;;;;;9.40;99.90;;;;;;2208947;26;19934;-77
2024/04/12 03:14:39;;;;;;;;;;;9.40;99.90;;;;;;2214353;26;20034;-76
2024/04/12 03:15:42;;;;;;;;;;;9.40;99.90;;;;;;2225843;26;19940;-76
2024/04/12 03:16:43;;;;;;;;;;;9.40;99.90;;;;;;2208346;26;20503;-77
2024/04/12 03:17:43;;;;;;;;;;;9.40;99.90;;;;;;2198420;26;20082;-76
2024/04/12 03:18:44;;;;;;;;;;;9.40;99.90;;;;;;2210613;26;19936;-77
2024/04/12 03:19:45;;;;;;;;;;;9.40;99.90;;;;;;2194706;26;19931;-76
2024/04/12 03:20:47;;;;;;;;;;;9.40;99.90;;;;;;2213073;26;20406;-76
2024/04/12 03:21:50;;;;;;;;;;;9.40;99.90;;;;;;2214931;26;20371;-76
2024/04/12 03:22:52;;;;;;;;;;;9.30;99.90;;;;;;2209398;26;20036;-76
2024/04/12 03:23:53;;;;;;;;;;;9.30;99.90;;;;;;2226388;26;19928;-76
2024/04/12 03:24:56;;;;;;;;;;;9.30;99.90;;;;;;2224594;26;20450;-76
2024/04/12 03:25:56;;;;;;;;;;;9.30;99.90;;;;;;2208994;26;19933;-75
2024/04/12 03:26:58;;;;;;;;;;;9.30;99.90;;;;;;2213440;26;20006;-76
2024/04/12 03:27:58;;;;;;;;;;;9.30;99.90;;;;;;2214105;26;19936;-75
2024/04/12 03:29:03;;;;;;;;;;;9.30;99.90;;;;;;2205479;26;19941;-75
2024/04/12 03:30:13;;;;;;;;;;;9.30;99.90;;;;;;2209687;26;20446;-77
2024/04/12 03:31:13;;;;;;;;;;;9.30;99.90;;;;;;2223212;26;20372;-77
2024/04/12 03:32:14;;;;;;;;;;;9.30;99.90;;;;;;2225303;26;19936;-76
2024/04/12 03:33:15;;;;;;;;;;;9.30;99.90;;;;;;2215425;26;19999;-76
2024/04/12 03:34:16;;;;;;;;;;;9.30;99.90;;;;;;2197782;26;21163;-75
2024/04/12 03:35:17;;;;;;;;;;;9.20;99.90;;;;;;2210006;26;19930;-76
2024/04/12 03:37:38;;;;;;;;;;;9.20;99.90;;;;;;2225571;26;20296;-76
2024/04/12 03:38:39;;;;;;;;;;;9.20;99.90;;;;;;2225779;26;19936;-76
2024/04/12 03:39:39;;;;;;;;;;;9.20;99.90;;;;;;2225302;26;19937;-76
2024/04/12 03:40:45;;;;;;;;;;;9.20;99.90;;;;;;2231339;26;19936;-75
2024/04/12 03:41:59;;;;;;;;;;;9.20;99.90;;;;;;2227376;26;20260;-76
2024/04/12 03:43:02;;;;;;;;;;;9.20;99.90;;;;;;2225325;26;20016;-75
2024/04/12 03:44:08;;;;;;;;;;;9.10;99.90;;;;;;2224747;26;20008;-76
2024/04/12 03:45:12;;;;;;;;;;;9.10;99.90;;;;;;2210115;26;19936;-76
2024/04/12 03:46:14;;;;;;;;;;;9.20;99.90;;;;;;2196967;26;19967;-76
2024/04/12 03:47:15;;;;;;;;;;;9.20;99.90;;;;;;2216848;26;20343;-75
2024/04/12 03:48:15;;;;;;;;;;;9.20;99.90;;;;;;2225771;26;19936;-76
2024/04/12 03:49:20;;;;;;;;;;;9.20;99.90;;;;;;2232495;26;19929;-76
2024/04/12 03:50:21;;;;;;;;;;;9.20;99.90;;;;;;2214651;26;19994;-77
2024/04/12 03:51:22;;;;;;;;;;;9.20;99.90;;;;;;2197750;26;20252;-75
2024/04/12 03:52:22;;;;;;;;;;;9.20;99.90;;;;;;2195195;26;19934;-71
2024/04/12 03:53:28;;;;;;;;;;;9.20;99.90;;;;;;2200237;26;19937;-77
2024/04/12 03:54:30;;;;;;;;;;;9.20;99.90;;;;;;2215338;26;19937;-76
2024/04/12 03:55:30;;;;;;;;;;;9.20;99.90;;;;;;2210239;26;19930;-77
2024/04/12 03:56:31;;;;;;;;;;;9.20;99.90;;;;;;2212542;26;20051;-76
2024/04/12 03:57:31;;;;;;;;;;;9.20;99.90;;;;;;2230046;26;19935;-76
2024/04/12 03:58:34;;;;;;;;;;;9.20;99.90;;;;;;2225335;26;20442;-78
2024/04/12 03:59:35;;;;;;;;;;;9.20;99.90;;;;;;2211777;26;19952;-76
2024/04/12 04:00:38;;;;;;;;;;;9.20;99.90;;;;;;2215818;26;20372;-77
2024/04/12 04:01:44;;;;;;;;;;;9.20;99.90;;;;;;2225412;26;19936;-78
2024/04/12 04:02:48;;;;;;;;;;;9.20;99.90;;;;;;2212020;26;19937;-77
2024/04/12 04:03:49;;;;;;;;;;;9.10;99.90;;;;;;2210892;26;19949;-76
2024/04/12 04:04:49;;;;;;;;;;;9.10;99.90;;;;;;2225448;26;19934;-77
2024/04/12 04:05:53;;;;;;;;;;;9.10;99.90;;;;;;2232011;26;19936;-76
2024/04/12 04:06:54;;;;;;;;;;;9.10;99.90;;;;;;2211098;26;20325;-77
2024/04/12 04:07:55;;;;;;;;;;;9.10;99.90;;;;;;2209984;26;19930;-77
2024/04/12 04:08:55;;;;;;;;;;;9.10;99.90;;;;;;2230674;26;19941;-77
2024/04/12 04:09:57;;;;;;;;;;;9.10;99.90;;;;;;2231559;26;19933;-77
2024/04/12 04:11:02;;;;;;;;;;;9.00;99.90;;;;;;2216536;26;20310;-76
2024/04/12 04:12:03;;;;;;;;;;;9.00;99.90;;;;;;2213655;26;19930;-78
2024/04/12 04:13:03;;;;;;;;;;;9.00;99.90;;;;;;2213507;26;19958;-76
2024/04/12 04:14:08;;;;;;;;;;;9.00;99.90;;;;;;2209504;26;19937;-77
2024/04/12 04:15:09;;;;;;;;;;;9.00;99.90;;;;;;2216921;26;20044;-78
2024/04/12 04:16:10;;;;;;;;;;;9.00;99.90;;;;;;2216600;26;19938;-77
2024/04/12 04:17:11;;;;;;;;;;;9.00;99.90;;;;;;2215895;26;19929;-76
2024/04/12 04:18:11;;;;;;;;;;;9.00;99.90;;;;;;2211987;26;20319;-76
2024/04/12 04:19:16;;;;;;;;;;;9.00;99.90;;;;;;2196393;26;19938;-77
2024/04/12 04:20:17;;;;;;;;;;;9.00;99.90;;;;;;2217510;26;19942;-78
2024/04/12 04:21:24;;;;;;;;;;;8.90;99.90;;;;;;2196741;26;19942;-76
2024/04/12 04:23:27;;;;;;;;;;;9.00;99.90;;;;;;2223876;26;19929;-77
2024/04/12 04:24:28;;;;;;;;;;;9.00;99.90;;;;;;2231060;26;19937;-77
2024/04/12 04:25:31;;;;;;;;;;;9.00;99.90;;;;;;2211128;26;20427;-77
2024/04/12 04:26:32;;;;;;;;;;;9.00;99.90;;;;;;2223844;26;20345;-77
2024/04/12 04:27:32;;;;;;;;;;;9.00;99.90;;;;;;2229954;26;20308;-77
2024/04/12 04:28:33;;;;;;;;;;;9.00;99.90;;;;;;2227578;26;19936;-77
2024/04/12 04:29:35;;;;;;;;;;;9.00;99.90;;;;;;2224896;26;19930;-77
2024/04/12 04:30:35;;;;;;;;;;;9.10;99.90;;;;;;2228720;26;19929;-78
2024/04/12 04:31:52;;;;;;;;;;;9.10;99.90;;;;;;2225381;26;20477;-78
2024/04/12 04:32:53;;;;;;;;;;;9.10;99.90;;;;;;2225551;26;19933;-76
2024/04/12 04:33:57;;;;;;;;;;;9.10;99.90;;;;;;2210064;26;19937;-76
2024/04/12 04:35:11;;;;;;;;;;;9.10;99.90;;;;;;2213171;26;19934;-77
2024/04/12 04:36:11;;;;;;;;;;;9.10;99.90;;;;;;2215213;26;20711;-77
2024/04/12 04:37:14;;;;;;;;;;;9.20;99.90;;;;;;2200487;26;20060;-77
2024/04/12 04:38:16;;;;;;;;;;;9.10;99.90;;;;;;2215846;26;19940;-77
2024/04/12 04:39:17;;;;;;;;;;;9.20;99.90;;;;;;2231582;26;20264;-77
2024/04/12 04:40:18;;;;;;;;;;;9.20;99.90;;;;;;2225504;26;19941;-78
2024/04/12 04:41:19;;;;;;;;;;;9.20;99.90;;;;;;2211494;26;19934;-78
2024/04/12 04:42:23;;;;;;;;;;;9.20;99.90;;;;;;2213909;26;20344;-79
2024/04/12 04:43:24;;;;;;;;;;;9.20;99.90;;;;;;2231583;26;19929;-76
2024/04/12 04:44:24;;;;;;;;;;;9.20;99.90;;;;;;2224559;26;19978;-77
2024/04/12 04:45:31;;;;;;;;;;;9.20;99.90;;;;;;2232306;26;19936;-77
2024/04/12 04:46:32;;;;;;;;;;;9.20;99.90;;;;;;2226056;26;19929;-77
2024/04/12 04:47:33;;;;;;;;;;;9.20;99.90;;;;;;2232137;26;19928;-77
2024/04/12 04:48:35;;;;;;;;;;;9.20;99.90;;;;;;2225170;26;19941;-78
2024/04/12 04:49:36;;;;;;;;;;;9.20;99.90;;;;;;2214623;26;20251;-78
2024/04/12 04:50:36;;;;;;;;;;;9.20;99.90;;;;;;2211522;26;19933;-78
2024/04/12 04:51:39;;;;;;;;;;;9.20;99.90;;;;;;2232095;26;19941;-77
2024/04/12 04:52:39;;;;;;;;;;;9.20;99.90;;;;;;2231923;26;19929;-78
2024/04/12 04:53:40;;;;;;;;;;;9.30;99.90;;;;;;2202874;26;19996;-77
2024/04/12 04:54:41;;;;;;;;;;;9.30;99.90;;;;;;2198943;26;19996;-78
2024/04/12 04:55:44;;;;;;;;;;;9.40;99.90;;;;;;2216629;26;19999;-77
2024/04/12 04:56:45;;;;;;;;;;;9.40;99.90;;;;;;2216924;26;20331;-77
2024/04/12 04:57:49;;;;;;;;;;;9.40;99.90;;;;;;2231983;26;19929;-77
2024/04/12 04:58:50;;;;;;;;;;;9.50;99.90;;;;;;2209133;26;19934;-78
2024/04/12 04:59:51;;;;;;;;;;;9.50;99.90;;;;;;2216565;26;20346;-77
2024/04/12 05:00:52;;;;;;;;;;;9.60;99.90;;;;;;2216742;26;19941;-77
2024/04/12 05:01:52;;;;;;;;;;;9.70;99.90;;;;;;2209720;26;19945;-78
2024/04/12 05:02:53;;;;;;;;;;;9.80;99.90;;;;;;2211639;26;20326;-77
2024/04/12 05:03:56;;;;;;;;;;;9.80;99.90;;;;;;2230319;26;20197;-77
2024/04/12 05:04:57;;;;;;;;;;;9.90;99.90;;;;;;2223515;26;19930;-77
2024/04/12 05:05:57;;;;;;;;;;;9.90;99.90;;;;;;2196454;26;20005;-76
2024/04/12 05:06:58;;;;;;;;;;;10.00;99.90;;;;;;2201568;26;19930;-77
2024/04/12 05:08:02;;;;;;;;;;;10.00;99.90;;;;;;2209021;26;19937;-77
2024/04/12 05:09:03;;;;;;;;;;;10.10;99.90;;;;;;2210069;26;19942;-77
2024/04/12 05:10:09;;;;;;;;;;;10.10;99.90;;;;;;2216585;26;19980;-78
2024/04/12 05:11:09;;;;;;;;;;;10.20;99.90;;;;;;2212112;26;19937;-77
2024/04/12 05:12:11;;;;;;;;;;;10.30;99.90;;;;;;2224591;26;19983;-77
2024/04/12 05:13:12;;;;;;;;;;;10.40;99.90;;;;;;2229160;26;20189;-77
2024/04/12 05:14:41;;;;;;;;;;;10.50;99.90;;;;;;2227524;26;19929;-78
2024/04/12 05:16:42;;;;;;;;;;;11.00;99.90;;;;;;2224860;26;20071;-76
2024/04/12 05:17:43;;;;;;;;;;;11.00;99.90;;;;;;2225136;26;20315;-77
2024/04/12 05:18:52;;;;;;;;;;;11.10;99.90;;;;;;2219793;26;19929;-77
2024/04/12 05:19:53;;;;;;;;;;;11.20;99.90;;;;;;2196536;26;20355;-76
2024/04/12 05:20:57;;;;;;;;;;;11.30;99.90;;;;;;2200513;26;19930;-77
2024/04/12 05:22:03;;;;;;;;;;;11.40;99.90;;;;;;2222709;26;19992;-77
2024/04/12 05:23:23;;;;;;;;;;;11.40;99.90;;;;;;2225127;26;20080;-77
2024/04/12 05:24:24;;;;;;;;;;;11.30;99.90;;;;;;2227812;26;20296;-78
2024/04/12 05:25:24;;;;;;;;;;;11.40;99.90;;;;;;2224636;26;19933;-78
2024/04/12 05:26:28;;;;;;;;;;;11.40;99.90;;;;;;2231049;26;19998;-78
2024/04/12 05:27:30;;;;;;;;;;;11.40;99.90;;;;;;2230766;26;19941;-77
2024/04/12 05:28:30;;;;;;;;;;;11.30;99.90;;;;;;2215526;26;19936;-77
2024/04/12 05:29:32;;;;;;;;;;;11.30;99.90;;;;;;2209164;26;19929;-76
2024/04/12 05:30:36;;;;;;;;;;;11.40;99.90;;;;;;2214561;26;19987;-77
2024/04/12 05:31:44;;;;;;;;;;;11.30;99.90;;;;;;2213088;26;19937;-75
2024/04/12 05:32:45;;;;;;;;;;;11.20;99.90;;;;;;2225965;26;20399;-77
2024/04/12 05:33:45;;;;;;;;;;;11.20;99.90;;;;;;2216084;26;19941;-77
2024/04/12 05:34:46;;;;;;;;;;;11.20;99.90;;;;;;2212115;26;19930;-76
2024/04/12 05:35:48;;;;;;;;;;;11.10;99.90;;;;;;2229542;26;19939;-76
2024/04/12 05:36:49;;;;;;;;;;;11.10;99.90;;;;;;2231047;26;19929;-77
2024/04/12 05:37:52;;;;;;;;;;;11.10;99.90;;;;;;2230734;26;20225;-77
2024/04/12 05:38:54;;;;;;;;;;;11.10;99.90;;;;;;2218244;26;19929;-78
2024/04/12 05:39:56;;;;;;;;;;;11.10;99.90;;;;;;2228047;26;19940;-75
2024/04/12 05:41:00;;;;;;;;;;;11.20;99.90;;;;;;2222996;26;20310;-72
2024/04/12 05:42:00;;;;;;;;;;;11.10;99.90;;;;;;2217630;26;20899;-72
2024/04/12 05:43:01;;;;;;;;;;;11.10;99.90;;;;;;2227571;26;20552;-73
2024/04/12 05:44:01;;;;;;;;;;;11.00;99.90;;;;;;2235316;26;19948;-82
2024/04/12 05:45:04;;;;;;;;;;;11.00;99.90;;;;;;2223933;26;19933;-81
2024/04/12 05:46:06;;;;;;;;;;;10.90;99.90;;;;;;2226913;26;19980;-82
2024/04/12 05:47:06;;;;;;;;;;;10.90;99.90;;;;;;2232174;26;19998;-78
2024/04/12 05:48:13;;;;;;;;;;;10.90;99.90;;;;;;2230472;26;20274;-79
2024/04/12 05:49:14;;;;;;;;;;;10.90;99.90;;;;;;2231081;26;19948;-81
2024/04/12 05:50:15;;;;;;;;;;;11.00;99.90;;;;;;2226358;26;19984;-79
2024/04/12 05:51:16;;;;;;;;;;;11.00;99.90;;;;;;2217005;26;19930;-81
2024/04/12 05:52:19;;;;;;;;;;;11.10;99.90;;;;;;2217853;26;20051;-80
2024/04/12 05:53:30;;;;;;;;;;;11.00;99.90;;;;;;2225185;26;19933;-80
2024/04/12 05:54:39;;;;;;;;;;;11.00;99.90;;;;;;2208861;26;19938;-78
2024/04/12 05:55:52;;;;;;;;;;;11.00;99.90;;;;;;2222181;26;19929;-81
2024/04/12 05:56:52;;;;;;;;;;;11.00;99.90;;;;;;2214657;26;19936;-79
2024/04/12 05:57:57;;;;;;;;;;;11.00;99.90;;;;;;2218040;26;20642;-80
2024/04/12 05:59:00;;;;;;;;;;;11.10;99.90;;;;;;2230064;26;19940;-79
2024/04/12 06:00:09;;;;;;;;;;;11.10;99.90;;;;;;2226654;26;19956;-78
2024/04/12 06:01:12;;;;;;;;;;;11.20;99.90;;;;;;2225444;26;19938;-80
2024/04/12 06:02:18;;;;;;;;;;;11.20;99.90;;;;;;2230998;26;19939;-79
2024/04/12 06:03:18;;;;;;;;;;;11.30;99.90;;;;;;2224442;26;19929;-76
2024/04/12 06:04:19;;;;;;;;;;;11.30;99.90;;;;;;2222063;26;19941;-79
2024/04/12 06:05:22;;;;;;;;;;;11.30;99.90;;;;;;2216175;26;19938;-81
2024/04/12 06:06:23;;;;;;;;;;;11.20;99.90;;;;;;2219777;26;20119;-81
2024/04/12 06:07:26;;;;;;;;;;;11.30;99.90;;;;;;2229644;26;19969;-80
2024/04/12 06:08:28;;;;;;;;;;;11.30;99.90;;;;;;2217806;26;19929;-82
2024/04/12 06:09:29;;;;;;;;;;;11.30;99.90;;;;;;2218332;26;19965;-81
2024/04/12 06:10:30;;;;;;;;;;;11.40;99.90;;;;;;2196214;26;19934;-81
2024/04/12 06:11:31;;;;;;;;;;;11.40;99.90;;;;;;2196034;26;20264;-81
2024/04/12 06:12:34;;;;;;;;;;;11.40;99.90;;;;;;2219741;26;20415;-81